Time;durP1;ratioP1;P1;durP2;ratioP2;P2;SDS_P1;SDS_P2;PMS_P1;PMS_P2;Temp;Humidity;BMP_temperature;BMP_pressure;BME280_temperature;BME280_humidity;BME280_pressure;Samples;Min_cycle;Max_cycle;Signal;HPM_P1;HPM_P2
2023/10/22 04:01:38;;;;;;;0.60;0.10;;;13.00;69.50;;;;;;5335333;23;20665;-73
2023/10/22 04:04:06;;;;;;;0.60;0.10;;;12.90;73.50;;;;;;4912727;29;20505;-71
2023/10/22 04:06:34;;;;;;;0.60;0.10;;;12.80;76.10;;;;;;4929317;29;20445;-72
2023/10/22 04:09:02;;;;;;;0.60;0.20;;;12.80;78.60;;;;;;4924530;29;20442;-71
2023/10/22 04:11:30;;;;;;;0.60;0.10;;;12.80;80.10;;;;;;4942350;29;20540;-71
2023/10/22 04:13:58;;;;;;;0.60;0.10;;;12.90;80.00;;;;;;4950104;23;20986;-69
2023/10/22 04:16:26;;;;;;;0.60;0.10;;;12.80;79.00;;;;;;4914211;29;20543;-69
2023/10/22 04:18:55;;;;;;;0.60;0.10;;;12.80;80.80;;;;;;4923028;29;20452;-69
2023/10/22 04:21:23;;;;;;;0.60;0.10;;;12.70;83.60;;;;;;4920828;29;20450;-70
2023/10/22 04:23:52;;;;;;;0.60;0.10;;;12.80;85.80;;;;;;4929732;29;21053;-70
2023/10/22 04:26:19;;;;;;;0.60;0.10;;;12.60;85.10;;;;;;4918868;29;20504;-69
2023/10/22 04:28:47;;;;;;;0.60;0.10;;;12.70;87.80;;;;;;4917461;29;21052;-69
2023/10/22 04:31:15;;;;;;;0.60;0.10;;;12.70;89.40;;;;;;4925849;29;20554;-69
2023/10/22 04:33:43;;;;;;;0.60;0.10;;;12.70;88.80;;;;;;4930639;29;20481;-69
2023/10/22 04:36:20;;;;;;;0.60;0.10;;;12.60;87.80;;;;;;4917717;29;20508;-69
2023/10/22 04:38:48;;;;;;;0.60;0.10;;;12.60;91.10;;;;;;4917824;29;20882;-69
2023/10/22 04:41:16;;;;;;;0.60;0.20;;;;;;;;;;4926172;29;20498;-69
2023/10/22 04:43:44;;;;;;;0.60;0.10;;;12.60;91.80;;;;;;4917476;29;20836;-69
2023/10/22 04:46:12;;;;;;;0.60;0.10;;;12.60;91.90;;;;;;4923607;29;20541;-70
2023/10/22 04:48:40;;;;;;;0.60;0.10;;;12.60;92.50;;;;;;4918168;29;20452;-70
2023/10/22 04:51:09;;;;;;;0.60;0.10;;;12.60;92.50;;;;;;4925083;29;20534;-69
2023/10/22 04:53:38;;;;;;;0.60;0.10;;;12.60;93.10;;;;;;4924168;29;20468;-69
2023/10/22 04:56:06;;;;;;;0.60;0.10;;;12.70;93.00;;;;;;4917843;29;20841;-70
2023/10/22 04:58:35;;;;;;;0.60;0.10;;;12.70;93.70;;;;;;4925631;29;20460;-71
2023/10/22 05:01:03;;;;;;;0.60;0.10;;;12.80;93.60;;;;;;4919241;29;20508;-70
2023/10/22 05:03:30;;;;;;;0.60;0.10;;;12.80;94.00;;;;;;4922937;29;20549;-70
2023/10/22 05:06:04;;;;;;;0.60;0.10;;;12.90;94.00;;;;;;4925029;29;20447;-70
2023/10/22 05:08:36;;;;;;;0.60;0.10;;;12.90;93.40;;;;;;4924904;29;20987;-69
2023/10/22 05:11:05;;;;;;;0.60;0.20;;;12.90;92.80;;;;;;4918455;29;21004;-71
2023/10/22 05:13:34;;;;;;;0.60;0.10;;;12.90;92.70;;;;;;4922215;29;20977;-70
2023/10/22 05:16:01;;;;;;;0.60;0.10;;;12.90;92.40;;;;;;4925350;29;20449;-70
2023/10/22 05:18:30;;;;;;;0.60;0.10;;;12.90;93.00;;;;;;4917988;29;20524;-70
2023/10/22 05:21:01;;;;;;;0.60;0.10;;;12.90;93.00;;;;;;4924746;29;20492;-70
2023/10/22 05:23:29;;;;;;;0.60;0.20;;;12.80;92.50;;;;;;4916928;29;20545;-70
2023/10/22 05:26:05;;;;;;;0.80;0.33;;;12.70;93.50;;;;;;4917635;29;20449;-70
2023/10/22 05:28:33;;;;;;;0.60;0.10;;;12.70;95.40;;;;;;4924812;29;20449;-70
2023/10/22 05:31:01;;;;;;;0.80;0.60;;;12.70;95.00;;;;;;4917856;29;20450;-70
2023/10/22 05:33:29;;;;;;;0.60;0.10;;;12.80;95.70;;;;;;4921742;29;20577;-70
2023/10/22 05:35:57;;;;;;;0.60;0.10;;;12.80;95.80;;;;;;4915535;29;20478;-70
2023/10/22 05:38:25;;;;;;;0.60;0.10;;;12.80;96.10;;;;;;4917746;29;20448;-70
2023/10/22 05:40:53;;;;;;;0.60;0.20;;;12.80;96.60;;;;;;4917393;29;20528;-70
2023/10/22 05:43:22;;;;;;;0.60;0.10;;;12.80;97.20;;;;;;4918038;29;20450;-70
2023/10/22 05:45:56;;;;;;;3.90;0.50;;;12.80;96.90;;;;;;4917779;29;21017;-70
2023/10/22 05:48:24;;;;;;;0.60;0.10;;;12.80;96.80;;;;;;4912237;29;20450;-70
2023/10/22 05:50:52;;;;;;;0.77;0.77;;;12.60;97.60;;;;;;4917902;29;20817;-70
2023/10/22 05:53:20;;;;;;;0.70;0.20;;;12.60;99.90;;;;;;4916874;29;20450;-70
2023/10/22 05:55:56;;;;;;;0.60;0.10;;;12.60;99.90;;;;;;4916748;29;20524;-70
2023/10/22 05:58:26;;;;;;;0.60;0.10;;;12.70;99.90;;;;;;4910389;29;20457;-70
2023/10/22 06:00:54;;;;;;;0.60;0.10;;;12.70;99.90;;;;;;4916761;29;20550;-70
2023/10/22 06:03:22;;;;;;;0.70;0.20;;;12.70;99.90;;;;;;4917171;29;20481;-70
2023/10/22 06:05:50;;;;;;;0.60;0.10;;;12.80;99.90;;;;;;4917184;29;20824;-70
2023/10/22 06:08:18;;;;;;;0.60;0.10;;;12.90;99.90;;;;;;4909317;29;21031;-70
2023/10/22 06:10:47;;;;;;;0.60;0.10;;;12.90;99.90;;;;;;4916830;29;20537;-70
2023/10/22 06:13:15;;;;;;;0.60;0.10;;;12.90;99.90;;;;;;4917260;29;20447;-70
2023/10/22 06:15:45;;;;;;;0.93;0.93;;;12.90;99.90;;;;;;4917037;29;20939;-70
2023/10/22 06:18:14;;;;;;;0.60;0.20;;;13.00;99.90;;;;;;4911235;29;20466;-70
2023/10/22 06:20:42;;;;;;;0.60;0.10;;;13.00;99.50;;;;;;4913355;29;20530;-69
2023/10/22 06:23:10;;;;;;;0.60;0.10;;;13.00;99.80;;;;;;4913434;29;20526;-70
2023/10/22 06:25:38;;;;;;;0.80;0.40;;;12.90;99.90;;;;;;4916544;29;20449;-69
2023/10/22 06:28:06;;;;;;;0.60;0.10;;;12.90;99.90;;;;;;4909844;29;20558;-70
2023/10/22 06:30:34;;;;;;;1.27;1.03;;;12.90;99.90;;;;;;4913480;29;20472;-70
2023/10/22 06:33:03;;;;;;;0.90;0.80;;;13.00;99.90;;;;;;4917188;29;20494;-70
2023/10/22 06:35:32;;;;;;;0.60;0.10;;;13.00;99.90;;;;;;4912596;29;20482;-70
2023/10/22 06:38:00;;;;;;;0.60;0.10;;;12.90;99.90;;;;;;4910849;29;20489;-70
2023/10/22 06:40:28;;;;;;;1.37;0.60;;;12.80;99.90;;;;;;4912731;29;20576;-70
2023/10/22 06:42:56;;;;;;;0.60;0.20;;;12.90;99.90;;;;;;4909211;29;20490;-70
2023/10/22 06:45:27;;;;;;;0.60;0.10;;;13.00;99.90;;;;;;4915468;29;20489;-71
2023/10/22 06:47:56;;;;;;;3.60;0.60;;;12.80;99.90;;;;;;4915209;29;20469;-71
2023/10/22 06:50:26;;;;;;;4.80;1.43;;;;;;;;;;4911676;29;20528;-70
2023/10/22 06:52:54;;;;;;;1.43;0.63;;;12.80;99.90;;;;;;4910867;29;20460;-69
2023/10/22 06:55:21;;;;;;;0.60;0.20;;;12.90;99.90;;;;;;4907848;29;20557;-70
2023/10/22 06:57:49;;;;;;;0.60;0.30;;;12.90;99.90;;;;;;4908431;29;20554;-70
2023/10/22 07:00:17;;;;;;;0.60;0.10;;;13.00;99.90;;;;;;4907609;29;20464;-69
2023/10/22 07:02:46;;;;;;;0.60;0.10;;;13.10;99.90;;;;;;4913663;29;20573;-71
2023/10/22 07:05:14;;;;;;;0.60;0.10;;;13.10;99.90;;;;;;4914644;29;20489;-72
2023/10/22 07:07:43;;;;;;;0.60;0.10;;;13.10;99.90;;;;;;4920542;29;20942;-70
2023/10/22 07:10:11;;;;;;;0.60;0.10;;;13.10;99.90;;;;;;4908381;29;20554;-69
2023/10/22 07:12:39;;;;;;;0.60;0.10;;;;;;;;;;4915715;29;20567;-71
2023/10/22 07:15:11;;;;;;;0.60;0.10;;;13.20;99.90;;;;;;4915597;29;20568;-68
2023/10/22 07:17:40;;;;;;;0.60;0.10;;;13.30;99.90;;;;;;4915704;29;20445;-69
2023/10/22 07:20:08;;;;;;;0.60;0.10;;;13.30;99.90;;;;;;4913877;29;20485;-68
2023/10/22 07:22:36;;;;;;;0.60;0.20;;;13.40;99.90;;;;;;4914912;29;20485;-69
2023/10/22 07:25:06;;;;;;;0.60;0.10;;;;;;;;;;4915877;29;20476;-69
2023/10/22 07:27:34;;;;;;;1.30;0.43;;;13.40;99.90;;;;;;4915609;29;20486;-69
2023/10/22 07:30:03;;;;;;;0.60;0.10;;;13.40;99.90;;;;;;4915467;29;20457;-70
2023/10/22 07:32:31;;;;;;;0.60;0.10;;;13.50;99.90;;;;;;4915346;29;20452;-71
2023/10/22 07:34:59;;;;;;;0.73;0.53;;;13.40;99.90;;;;;;4914929;29;20473;-71
2023/10/22 07:37:27;;;;;;;0.60;0.20;;;13.40;99.90;;;;;;4915343;29;21154;-69
2023/10/22 07:39:54;;;;;;;0.70;0.60;;;13.40;99.90;;;;;;4915007;29;20459;-69
2023/10/22 07:42:24;;;;;;;0.60;0.10;;;13.50;99.90;;;;;;4915607;29;20490;-69
2023/10/22 07:44:52;;;;;;;0.60;0.10;;;13.40;99.90;;;;;;4915648;29;20874;-69
2023/10/22 07:47:20;;;;;;;0.60;0.10;;;13.40;99.90;;;;;;4915173;29;20499;-69
2023/10/22 07:49:51;;;;;;;0.60;0.10;;;13.50;99.90;;;;;;4915524;29;20461;-70
2023/10/22 07:52:19;;;;;;;0.60;0.30;;;;;;;;;;4915484;29;20458;-69
2023/10/22 07:54:49;;;;;;;0.60;0.10;;;13.40;99.90;;;;;;4914989;29;20998;-70
2023/10/22 07:57:17;;;;;;;0.60;0.10;;;13.40;99.90;;;;;;4915139;29;20498;-71
2023/10/22 07:59:46;;;;;;;1.83;1.07;;;13.50;99.90;;;;;;4915944;29;20991;-71
2023/10/22 08:02:14;;;;;;;1.47;1.37;;;13.50;99.90;;;;;;4916723;29;20575;-71
2023/10/22 08:04:42;;;;;;;0.60;0.10;;;13.60;99.90;;;;;;4917437;29;20499;-70
2023/10/22 08:07:10;;;;;;;0.60;0.20;;;13.70;99.90;;;;;;4916652;29;20456;-71
2023/10/22 08:09:38;;;;;;;0.60;0.10;;;13.60;99.90;;;;;;4915406;29;20455;-71
2023/10/22 08:12:07;;;;;;;0.60;0.10;;;13.60;99.90;;;;;;4916441;29;20463;-71
2023/10/22 08:14:35;;;;;;;2.10;0.83;;;13.70;99.90;;;;;;4913430;29;20501;-69
2023/10/22 08:17:05;;;;;;;0.60;0.10;;;13.80;99.90;;;;;;4915920;29;20632;-70
2023/10/22 08:19:33;;;;;;;0.60;0.10;;;13.90;99.90;;;;;;4916494;29;20442;-71
2023/10/22 08:22:01;;;;;;;0.60;0.20;;;14.00;99.90;;;;;;4919826;29;20487;-71
2023/10/22 08:24:29;;;;;;;10.50;1.93;;;14.10;99.90;;;;;;4926502;29;20503;-71
2023/10/22 08:27:00;;;;;;;6.73;1.30;;;14.10;99.90;;;;;;4926848;29;20549;-70
2023/10/22 08:29:28;;;;;;;0.90;0.20;;;14.10;99.90;;;;;;4926109;29;20443;-71
2023/10/22 08:31:56;;;;;;;0.60;0.20;;;14.20;99.90;;;;;;4925882;29;20460;-71
2023/10/22 08:34:26;;;;;;;1.33;0.30;;;;;;;;;;4922005;29;20901;-71
2023/10/22 08:36:54;;;;;;;0.60;0.10;;;14.10;99.90;;;;;;4942588;29;20445;-71
2023/10/22 08:39:22;;;;;;;1.20;0.87;;;14.10;99.90;;;;;;4944725;29;20525;-71
2023/10/22 08:41:58;;;;;;;0.60;0.10;;;14.20;99.90;;;;;;4944904;29;20490;-70
2023/10/22 08:44:29;;;;;;;0.60;0.10;;;14.30;99.90;;;;;;4944002;29;20485;-71
2023/10/22 08:46:57;;;;;;;0.60;0.10;;;14.30;99.90;;;;;;4944207;29;20446;-71
2023/10/22 08:49:28;;;;;;;0.60;0.10;;;14.40;99.90;;;;;;4940791;29;20451;-71
2023/10/22 08:51:56;;;;;;;0.60;0.10;;;14.40;99.90;;;;;;4919175;29;20456;-71
2023/10/22 08:54:26;;;;;;;0.60;0.13;;;14.50;99.90;;;;;;4919741;29;20463;-72
2023/10/22 08:56:54;;;;;;;0.60;0.10;;;14.40;99.90;;;;;;4918795;29;20462;-70
2023/10/22 08:59:23;;;;;;;0.60;0.10;;;14.40;99.90;;;;;;4918066;29;20457;-70
2023/10/22 09:01:51;;;;;;;0.60;0.10;;;14.40;99.90;;;;;;4918610;29;20611;-71
2023/10/22 09:04:19;;;;;;;0.60;0.10;;;14.40;99.90;;;;;;4918501;29;20559;-71
2023/10/22 09:06:53;;;;;;;0.60;0.10;;;14.40;99.90;;;;;;4918845;29;20455;-72
2023/10/22 09:09:33;;;;;;;1.13;0.30;;;14.50;99.90;;;;;;4918188;29;20481;-72
2023/10/22 09:12:01;;;;;;;0.60;0.10;;;14.40;99.90;;;;;;4919160;29;20542;-71
2023/10/22 09:14:29;;;;;;;0.60;0.20;;;14.40;99.90;;;;;;4926035;29;20477;-70
2023/10/22 09:16:57;;;;;;;0.70;0.40;;;14.40;99.90;;;;;;4919962;29;20534;-68
2023/10/22 09:19:36;;;;;;;0.60;0.10;;;14.40;99.90;;;;;;4909325;29;20454;-70
2023/10/22 09:22:05;;;;;;;0.60;0.10;;;14.40;99.90;;;;;;4913529;29;20492;-69
2023/10/22 09:24:34;;;;;;;0.60;0.10;;;14.40;99.90;;;;;;4909482;29;20467;-69
2023/10/22 09:27:03;;;;;;;0.60;0.10;;;14.40;99.90;;;;;;4908991;29;20491;-72
2023/10/22 09:29:32;;;;;;;0.60;0.10;;;;;;;;;;4912536;29;20450;-71
2023/10/22 09:32:00;;;;;;;0.60;0.10;;;14.40;99.90;;;;;;4911861;29;20951;-69
2023/10/22 09:34:30;;;;;;;0.60;0.20;;;14.40;99.90;;;;;;4909998;29;20470;-70
2023/10/22 09:36:59;;;;;;;0.60;0.10;;;;;;;;;;4905897;29;20449;-71
2023/10/22 09:39:36;;;;;;;0.60;0.40;;;14.50;99.90;;;;;;4896127;29;20539;-68
2023/10/22 09:42:05;;;;;;;0.60;0.10;;;14.40;99.90;;;;;;4912107;29;20518;-71
2023/10/22 09:44:44;;;;;;;0.60;0.10;;;14.50;99.90;;;;;;4904588;29;20476;-72
2023/10/22 09:47:19;;;;;;;0.60;0.27;;;14.60;99.90;;;;;;4913233;29;20990;-69
2023/10/22 09:49:52;;;;;;;6.73;1.50;;;14.70;99.90;;;;;;4910046;29;20579;-72
2023/10/22 09:52:23;;;;;;;0.70;0.20;;;14.40;99.90;;;;;;4904644;29;20469;-70
2023/10/22 09:54:55;;;;;;;1.10;0.40;;;14.60;99.90;;;;;;4909930;29;20479;-71
2023/10/22 09:57:29;;;;;;;0.60;0.20;;;14.60;99.90;;;;;;4913345;29;20539;-70
2023/10/22 10:00:01;;;;;;;0.60;0.10;;;14.80;99.90;;;;;;4912514;29;20507;-70
2023/10/22 10:02:29;;;;;;;0.60;0.10;;;14.70;99.90;;;;;;4898824;29;20520;-69
2023/10/22 10:04:58;;;;;;;0.60;0.10;;;14.80;99.90;;;;;;4915113;29;20473;-70
2023/10/22 10:07:26;;;;;;;0.60;0.10;;;14.90;99.90;;;;;;4917379;29;20471;-70
2023/10/22 10:09:56;;;;;;;0.60;0.10;;;15.00;99.90;;;;;;4916559;29;20466;-70
2023/10/22 10:12:27;;;;;;;0.60;0.10;;;;;;;;;;4927608;29;20442;-70
2023/10/22 10:14:55;;;;;;;0.60;0.10;;;14.90;99.90;;;;;;4932615;29;20535;-71
2023/10/22 10:17:23;;;;;;;0.60;0.10;;;14.90;99.00;;;;;;4912381;29;20983;-72
2023/10/22 10:19:52;;;;;;;0.87;0.47;;;;;;;;;;4922534;29;20577;-72
2023/10/22 10:22:39;;;;;;;0.60;0.23;;;14.80;96.80;;;;;;4919229;29;20828;-70
2023/10/22 10:25:30;;;;;;;1.23;0.37;;;14.60;96.10;;;;;;4916462;29;20468;-70
2023/10/22 10:28:02;;;;;;;1.10;0.40;;;14.40;97.70;;;;;;4916283;29;21010;-71
2023/10/22 10:30:30;;;;;;;0.60;0.20;;;14.40;99.90;;;;;;4916444;29;20523;-70
2023/10/22 10:32:58;;;;;;;2.73;1.13;;;14.40;99.60;;;;;;4916091;29;20966;-71
2023/10/22 10:35:44;;;;;;;1.83;0.67;;;14.40;99.90;;;;;;4916230;29;20567;-71
2023/10/22 10:38:23;;;;;;;0.60;0.33;;;14.40;99.90;;;;;;4924411;29;20454;-70
2023/10/22 10:40:53;;;;;;;2.50;0.67;;;14.50;99.90;;;;;;4916304;29;20488;-68
2023/10/22 10:44:00;;;;;;;0.90;0.30;;;14.60;99.90;;;;;;4916583;29;20491;-71
2023/10/22 10:46:29;;;;;;;1.00;0.50;;;14.60;99.90;;;;;;4931564;29;20483;-69
2023/10/22 10:48:57;;;;;;;0.60;0.10;;;14.80;99.90;;;;;;4924192;29;20452;-71
2023/10/22 10:51:26;;;;;;;1.73;0.47;;;14.90;99.90;;;;;;4916091;29;20460;-70
2023/10/22 10:54:14;;;;;;;2.17;0.57;;;14.90;96.60;;;;;;4921779;29;20466;-72
2023/10/22 10:56:58;;;;;;;1.23;0.30;;;14.80;96.10;;;;;;4930126;29;20483;-70
2023/10/22 10:59:28;;;;;;;0.60;0.20;;;14.80;94.60;;;;;;4926153;29;20890;-72
2023/10/22 11:02:06;;;;;;;0.60;0.20;;;14.80;93.30;;;;;;4935206;29;20522;-70
2023/10/22 11:04:35;;;;;;;2.40;0.30;;;14.80;94.60;;;;;;4923882;29;20486;-71
2023/10/22 11:07:04;;;;;;;0.60;0.20;;;14.80;94.90;;;;;;4916137;29;20451;-70
2023/10/22 11:09:49;;;;;;;0.60;0.10;;;14.80;94.10;;;;;;4909606;29;20518;-72
2023/10/22 11:12:20;;;;;;;0.80;0.70;;;14.80;95.80;;;;;;4931452;29;20894;-70
2023/10/22 11:14:55;;;;;;;0.60;0.10;;;14.90;95.60;;;;;;4915723;29;20851;-72
2023/10/22 11:17:24;;;;;;;0.60;0.10;;;14.90;93.50;;;;;;4915293;29;20795;-71
2023/10/22 11:19:52;;;;;;;0.60;0.30;;;14.90;93.70;;;;;;4915099;29;20574;-71
2023/10/22 11:22:20;;;;;;;2.23;0.27;;;14.90;93.60;;;;;;4912818;29;20469;-70
2023/10/22 11:24:48;;;;;;;0.60;0.10;;;14.90;94.40;;;;;;4910194;29;20499;-71
2023/10/22 11:27:17;;;;;;;1.00;0.43;;;14.90;94.20;;;;;;4915928;29;21002;-72
2023/10/22 11:29:47;;;;;;;0.60;0.10;;;15.00;95.10;;;;;;4903039;29;21015;-71
2023/10/22 11:32:16;;;;;;;1.50;1.37;;;14.90;93.70;;;;;;4915996;29;20831;-72
2023/10/22 11:34:51;;;;;;;0.60;0.10;;;14.90;95.40;;;;;;4915348;29;20475;-72
2023/10/22 11:37:20;;;;;;;1.23;1.00;;;15.00;95.00;;;;;;4932535;29;20478;-71
2023/10/22 11:39:48;;;;;;;1.00;0.87;;;15.10;95.00;;;;;;4920564;29;20959;-72
2023/10/22 11:42:16;;;;;;;1.43;0.73;;;15.20;94.10;;;;;;4915107;29;20547;-70
2023/10/22 11:44:46;;;;;;;0.60;0.20;;;15.20;93.80;;;;;;4914806;29;20505;-71
2023/10/22 11:47:24;;;;;;;2.70;0.67;;;15.20;94.10;;;;;;4923628;29;20541;-70
2023/10/22 11:49:54;;;;;;;0.70;0.50;;;15.20;94.20;;;;;;4934833;29;20443;-71
2023/10/22 11:52:39;;;;;;;0.60;0.20;;;15.20;95.10;;;;;;4935709;29;20949;-72
2023/10/22 11:55:09;;;;;;;0.60;0.30;;;15.20;94.30;;;;;;4927174;29;20554;-70
2023/10/22 11:57:56;;;;;;;1.57;0.57;;;15.30;94.20;;;;;;4903739;29;20867;-71
2023/10/22 12:00:26;;;;;;;0.60;0.20;;;15.20;93.70;;;;;;4915775;29;20447;-71
2023/10/22 12:02:55;;;;;;;0.60;0.20;;;15.30;94.10;;;;;;4915899;29;20448;-71
2023/10/22 12:05:24;;;;;;;0.60;0.20;;;15.30;94.40;;;;;;4931535;29;20901;-73
2023/10/22 12:07:52;;;;;;;0.80;0.40;;;15.30;92.90;;;;;;4912717;29;20550;-71
2023/10/22 12:10:19;;;;;;;0.70;0.30;;;15.30;94.00;;;;;;4915060;29;20448;-74
2023/10/22 12:12:47;;;;;;;0.60;0.10;;;15.20;94.80;;;;;;4917202;29;20537;-72
2023/10/22 12:15:15;;;;;;;0.60;0.10;;;15.20;94.80;;;;;;4914183;29;20482;-72
2023/10/22 12:17:45;;;;;;;1.90;0.87;;;15.20;93.80;;;;;;4914669;29;20535;-72
2023/10/22 12:20:13;;;;;;;0.67;0.37;;;15.30;94.90;;;;;;4908231;29;20453;-70
2023/10/22 12:22:41;;;;;;;9.40;2.10;;;15.40;94.60;;;;;;4904251;29;20535;-71
2023/10/22 12:25:09;;;;;;;2.37;1.03;;;15.40;94.90;;;;;;4914178;29;20543;-71
2023/10/22 12:27:37;;;;;;;0.70;0.57;;;15.40;93.40;;;;;;4916186;29;20844;-73
2023/10/22 12:30:07;;;;;;;0.60;0.20;;;15.20;94.30;;;;;;4916195;29;20464;-70
2023/10/22 12:32:35;;;;;;;0.60;0.20;;;15.30;94.20;;;;;;4907504;29;20450;-71
2023/10/22 12:35:05;;;;;;;0.93;0.50;;;15.30;93.90;;;;;;4910591;29;21003;-71
2023/10/22 12:37:33;;;;;;;0.60;0.10;;;15.30;94.00;;;;;;4906150;29;20452;-73
2023/10/22 12:40:05;;;;;;;0.60;0.10;;;15.40;92.80;;;;;;4913269;29;20448;-72
2023/10/22 12:42:34;;;;;;;0.60;0.10;;;15.30;90.40;;;;;;4911915;29;20459;-71
2023/10/22 12:45:02;;;;;;;2.00;0.40;;;15.40;88.80;;;;;;4912622;29;20499;-72
2023/10/22 12:47:30;;;;;;;0.70;0.40;;;15.30;89.50;;;;;;4912883;29;21042;-71
2023/10/22 12:49:58;;;;;;;3.93;0.83;;;15.40;86.00;;;;;;4913182;29;20447;-72
2023/10/22 12:52:28;;;;;;;0.60;0.10;;;15.40;85.00;;;;;;4912871;29;20462;-71
2023/10/22 12:54:55;;;;;;;0.70;0.30;;;15.30;78.30;;;;;;4909435;29;20501;-71
2023/10/22 12:57:23;;;;;;;0.70;0.30;;;15.40;80.30;;;;;;4910875;29;20455;-70
2023/10/22 12:59:51;;;;;;;0.60;0.20;;;15.40;80.10;;;;;;4913624;29;20515;-72
2023/10/22 13:02:18;;;;;;;0.80;0.50;;;15.40;80.90;;;;;;4915278;29;20550;-73
2023/10/22 13:04:47;;;;;;;1.27;0.53;;;19.30;83.10;;;;;;4908296;29;20571;-72
2023/10/22 13:07:16;;;;;;;0.60;0.10;;;18.10;81.00;;;;;;4918448;29;20459;-73
2023/10/22 13:09:45;;;;;;;0.60;0.10;;;15.60;80.00;;;;;;4915755;29;20527;-74
2023/10/22 13:12:13;;;;;;;0.60;0.20;;;15.60;79.20;;;;;;4915622;29;20551;-71
2023/10/22 13:14:41;;;;;;;0.60;0.20;;;;;;;;;;4908659;29;21952;-72
2023/10/22 13:17:10;;;;;;;0.60;0.10;;;15.70;77.10;;;;;;4916142;29;20527;-72
2023/10/22 13:19:37;;;;;;;0.60;0.20;;;15.60;74.90;;;;;;4909337;29;20440;-72
2023/10/22 13:22:06;;;;;;;6.40;2.57;;;15.60;76.90;;;;;;4917062;29;20444;-72
2023/10/22 13:24:34;;;;;;;3.30;0.83;;;15.50;78.20;;;;;;4916706;29;20492;-72
2023/10/22 13:27:03;;;;;;;1.73;0.20;;;15.50;78.40;;;;;;4917154;29;20451;-70
2023/10/22 13:29:31;;;;;;;0.60;0.20;;;15.50;80.90;;;;;;4916895;29;20474;-72
2023/10/22 13:31:59;;;;;;;0.93;0.70;;;15.60;79.50;;;;;;4909915;29;20451;-71
2023/10/22 13:34:27;;;;;;;1.07;0.43;;;15.50;80.60;;;;;;4901775;29;20508;-71
2023/10/22 13:36:55;;;;;;;0.60;0.23;;;15.60;82.20;;;;;;4910016;29;20451;-72
2023/10/22 13:39:23;;;;;;;2.63;2.00;;;15.60;80.40;;;;;;4915505;29;20518;-71
2023/10/22 13:41:51;;;;;;;0.60;0.10;;;15.70;80.70;;;;;;4916098;29;20803;-72
2023/10/22 13:44:20;;;;;;;0.60;0.10;;;15.80;81.20;;;;;;4915564;29;20594;-70
2023/10/22 13:46:48;;;;;;;0.60;0.10;;;15.70;77.10;;;;;;4908284;29;20535;-72
2023/10/22 13:49:15;;;;;;;0.60;0.10;;;15.80;78.50;;;;;;4924093;29;20912;-72
2023/10/22 13:51:45;;;;;;;1.23;1.13;;;15.80;79.10;;;;;;4916287;29;20543;-71
2023/10/22 13:54:13;;;;;;;1.60;1.50;;;;;;;;;;4923904;29;20506;-70
2023/10/22 13:56:41;;;;;;;1.93;0.30;;;15.70;77.30;;;;;;4917117;29;20857;-69
2023/10/22 13:59:10;;;;;;;0.60;0.10;;;15.70;80.40;;;;;;4924673;29;21005;-70
2023/10/22 14:01:39;;;;;;;0.60;0.10;;;15.80;75.60;;;;;;4918997;29;20550;-73
2023/10/22 14:04:07;;;;;;;0.60;0.10;;;15.70;74.80;;;;;;4921220;29;20475;-71
2023/10/22 14:06:36;;;;;;;0.83;0.20;;;15.70;77.70;;;;;;4924801;29;20451;-70
2023/10/22 14:09:04;;;;;;;0.60;0.10;;;15.80;78.20;;;;;;4916142;29;20454;-72
2023/10/22 14:11:32;;;;;;;0.60;0.10;;;15.80;79.10;;;;;;4924676;29;20517;-72
2023/10/22 14:14:01;;;;;;;1.07;0.97;;;15.80;77.50;;;;;;4921440;29;20502;-71
2023/10/22 14:16:29;;;;;;;0.60;0.20;;;15.90;76.70;;;;;;4918284;29;20532;-69
2023/10/22 14:18:58;;;;;;;1.17;0.77;;;15.80;76.00;;;;;;4923850;29;20455;-70
2023/10/22 14:21:26;;;;;;;0.60;0.17;;;15.80;77.80;;;;;;4916992;29;20480;-70
2023/10/22 14:23:54;;;;;;;0.60;0.10;;;15.70;80.00;;;;;;4927811;29;20473;-73
2023/10/22 14:26:22;;;;;;;1.13;0.50;;;15.80;81.40;;;;;;4912773;29;20507;-71
2023/10/22 14:28:50;;;;;;;0.70;0.40;;;15.80;81.80;;;;;;4915804;29;20799;-70
2023/10/22 14:31:19;;;;;;;1.10;0.67;;;15.80;81.50;;;;;;4915063;29;20568;-70
2023/10/22 14:33:47;;;;;;;0.60;0.20;;;15.70;80.10;;;;;;4905312;29;20472;-70
2023/10/22 14:36:16;;;;;;;0.60;0.10;;;15.60;80.70;;;;;;4927319;29;20495;-73
2023/10/22 14:38:44;;;;;;;0.60;0.10;;;15.60;81.30;;;;;;4929038;29;20499;-71
2023/10/22 14:41:12;;;;;;;0.70;0.30;;;15.70;81.80;;;;;;4912660;29;20922;-70
2023/10/22 14:43:40;;;;;;;0.60;0.10;;;15.60;81.00;;;;;;4921150;29;21018;-72
2023/10/22 14:46:09;;;;;;;4.80;0.40;;;15.60;81.90;;;;;;4916065;29;20995;-73
2023/10/22 14:48:37;;;;;;;0.60;0.30;;;15.70;84.20;;;;;;4916193;29;20520;-72
2023/10/22 14:51:05;;;;;;;1.30;0.67;;;15.60;82.10;;;;;;4915724;29;20543;-72
2023/10/22 14:53:34;;;;;;;0.60;0.10;;;15.60;83.30;;;;;;4915664;29;20471;-72
2023/10/22 14:56:03;;;;;;;0.60;0.10;;;15.60;84.10;;;;;;4915993;29;20528;-71
2023/10/22 14:58:32;;;;;;;0.60;0.20;;;15.50;82.80;;;;;;4915545;29;20459;-72
2023/10/22 15:01:02;;;;;;;0.70;0.40;;;15.60;84.20;;;;;;4915629;29;20456;-71
2023/10/22 15:03:30;;;;;;;2.23;2.00;;;15.50;82.70;;;;;;4915336;29;20445;-71
2023/10/22 15:05:58;;;;;;;1.77;0.57;;;15.40;83.50;;;;;;4915478;29;20498;-71
2023/10/22 15:08:26;;;;;;;2.23;0.60;;;15.30;84.70;;;;;;4915114;29;20453;-71
2023/10/22 15:10:55;;;;;;;0.70;0.50;;;15.40;86.90;;;;;;4918825;29;20483;-70
2023/10/22 15:13:23;;;;;;;0.70;0.20;;;15.40;87.60;;;;;;4934254;29;20466;-70
2023/10/22 15:15:51;;;;;;;5.27;1.17;;;15.40;87.90;;;;;;4933948;29;20455;-70
2023/10/22 15:18:19;;;;;;;0.60;0.10;;;15.50;90.00;;;;;;4934691;29;20451;-71
2023/10/22 15:20:48;;;;;;;0.60;0.20;;;15.50;89.50;;;;;;4926316;29;20447;-71
2023/10/22 15:23:17;;;;;;;0.60;0.23;;;15.50;88.40;;;;;;4933745;29;20457;-70
2023/10/22 15:25:45;;;;;;;0.60;0.20;;;15.50;88.90;;;;;;4934234;29;20494;-70
2023/10/22 15:28:15;;;;;;;0.60;0.10;;;15.50;89.40;;;;;;4918623;29;20468;-71
2023/10/22 15:30:44;;;;;;;1.70;1.03;;;15.50;88.50;;;;;;4914304;29;20810;-74
2023/10/22 15:33:12;;;;;;;1.07;0.97;;;15.50;89.60;;;;;;4915114;29;20981;-73
2023/10/22 15:35:40;;;;;;;0.60;0.10;;;15.50;89.10;;;;;;4914316;29;20448;-71
2023/10/22 15:38:10;;;;;;;0.60;0.10;;;15.60;90.40;;;;;;4914740;29;20999;-72
2023/10/22 15:40:38;;;;;;;1.03;0.80;;;15.60;90.00;;;;;;4914638;29;20555;-71
2023/10/22 15:43:06;;;;;;;0.60;0.30;;;15.50;90.50;;;;;;4914810;29;20483;-72
2023/10/22 15:45:44;;;;;;;1.57;1.07;;;15.60;91.30;;;;;;4914646;29;20582;-73
2023/10/22 15:48:13;;;;;;;0.60;0.10;;;15.50;90.80;;;;;;4914253;29;20467;-72
2023/10/22 15:50:42;;;;;;;0.60;0.10;;;15.60;91.20;;;;;;4916823;29;20455;-70
2023/10/22 15:53:10;;;;;;;0.60;0.10;;;15.60;90.60;;;;;;4933550;29;20450;-70
2023/10/22 15:55:39;;;;;;;8.03;0.77;;;15.50;90.70;;;;;;4933357;29;20527;-71
2023/10/22 15:58:06;;;;;;;0.60;0.10;;;15.40;91.20;;;;;;4927466;29;20540;-70
2023/10/22 16:00:36;;;;;;;0.60;0.10;;;15.50;92.70;;;;;;4915169;29;20467;-73
2023/10/22 16:03:04;;;;;;;0.60;0.10;;;15.50;92.70;;;;;;4914976;29;20456;-71
2023/10/22 16:05:37;;;;;;;0.70;0.50;;;15.50;92.80;;;;;;4911038;29;20580;-71
2023/10/22 16:08:06;;;;;;;0.60;0.10;;;15.60;92.90;;;;;;4911299;29;20460;-71
2023/10/22 16:10:34;;;;;;;0.60;0.10;;;15.50;93.50;;;;;;4908868;29;20530;-72
2023/10/22 16:13:03;;;;;;;1.00;0.90;;;15.60;93.50;;;;;;4913260;29;21200;-71
2023/10/22 16:15:31;;;;;;;0.60;0.20;;;15.50;93.00;;;;;;4905750;29;21016;-69
2023/10/22 16:18:00;;;;;;;0.60;0.20;;;15.40;94.40;;;;;;4917155;29;20467;-69
2023/10/22 16:20:28;;;;;;;0.60;0.10;;;15.40;95.10;;;;;;4924694;29;20450;-70
2023/10/22 16:22:57;;;;;;;0.70;0.30;;;;;;;;;;4920419;29;20482;-72
2023/10/22 16:25:25;;;;;;;0.60;0.10;;;15.40;95.90;;;;;;4913907;29;20507;-70
2023/10/22 16:27:52;;;;;;;0.90;0.63;;;15.40;95.90;;;;;;4909795;29;20447;-70
2023/10/22 16:30:20;;;;;;;0.60;0.10;;;15.50;96.40;;;;;;4925561;29;20461;-70
2023/10/22 16:32:52;;;;;;;0.60;0.57;;;15.40;94.70;;;;;;4922306;29;20448;-70
2023/10/22 16:35:21;;;;;;;0.60;0.10;;;;;;;;;;4921474;29;20467;-70
2023/10/22 16:37:49;;;;;;;0.60;0.10;;;15.30;96.70;;;;;;4922237;29;20448;-71
2023/10/22 16:40:17;;;;;;;0.60;0.10;;;15.30;97.50;;;;;;4914424;29;20487;-70
2023/10/22 16:42:46;;;;;;;0.70;0.50;;;15.30;97.40;;;;;;4926009;29;20443;-70
2023/10/22 16:45:14;;;;;;;0.60;0.17;;;15.30;97.90;;;;;;4917685;29;20482;-69
2023/10/22 16:47:42;;;;;;;0.70;0.50;;;15.30;98.90;;;;;;4927570;29;20490;-69
2023/10/22 16:50:10;;;;;;;0.60;0.20;;;15.30;97.50;;;;;;4936634;29;20502;-70
2023/10/22 16:52:40;;;;;;;0.70;0.30;;;15.20;98.30;;;;;;4921176;29;20455;-70
2023/10/22 16:55:09;;;;;;;1.63;0.63;;;15.20;99.10;;;;;;4931165;29;20477;-74
2023/10/22 16:57:36;;;;;;;0.90;0.53;;;15.00;98.00;;;;;;4915462;29;20450;-72
2023/10/22 17:00:07;;;;;;;1.00;0.40;;;15.10;99.50;;;;;;4916908;29;20451;-70
2023/10/22 17:02:35;;;;;;;1.03;1.03;;;15.10;99.90;;;;;;4918480;29;20455;-69